Terminal Aerodrome Forecast
Issued by NWS Blacksburg, VA

Current Version | Previous Version | Graphics & Text | Print | Product List | Glossary On
Versions: 1 2 3 4 5 6 7 8 9 10 11 12 13 14 15 16 17 18 19 20 21 22
000
FTUS41 KRNK 152340
TAFBLF
TAF
KBLF 152340Z 1600/1624 22008KT P6SM BKN080
     FM160100 26008KT 6SM -SHRA OVC070
     FM160300 30008G18KT 6SM -SHRA OVC040
      TEMPO 1603/1607 2SM -SHRA BKN015 OVC022
     FM160700 31008KT P6SM SCT008 OVC015
     FM161500 32010KT P6SM BKN025
     FM162000 33008KT P6SM SCT035=

USA.gov is the U.S. government's official web portal to all federal, state and local government web resources and services.